TimeEDT,TemperatureF,Dew PointF,Humidity,Sea Level PressureIn,VisibilityMPH,Wind Direction,Wind SpeedMPH,Gust SpeedMPH,PrecipitationIn,Events,Conditions,WindDirDegrees,DateUTC
12:53 AM,-9999,-9999,N/A,29.92,-9999.0,North,-9999.0,-,N/A,,Unknown,0,2013-06-18 04:53:00
1:53 AM,-9999,-9999,N/A,29.90,-9999.0,North,-9999.0,-,N/A,,Unknown,0,2013-06-18 05:53:00
2:53 AM,60.1,59.0,96,29.90,10.0,Variable,3.5,-,N/A,,Partly Cloudy,0,2013-06-18 06:53:00
3:53 AM,59.0,57.9,96,29.90,10.0,Calm,Calm,-,N/A,,Clear,0,2013-06-18 07:53:00
4:53 AM,57.9,57.0,97,29.91,9.0,Calm,Calm,-,N/A,,Mostly Cloudy,0,2013-06-18 08:53:00
5:53 AM,57.0,55.9,96,29.93,5.0,Calm,Calm,-,N/A,,Clear,0,2013-06-18 09:53:00
6:19 AM,57.2,55.4,94,29.94,5.0,NNE,3.5,-,N/A,,Scattered Clouds,30,2013-06-18 10:19:00
6:28 AM,57.2,57.2,100,29.95,5.0,NE,3.5,-,N/A,,Mostly Cloudy,50,2013-06-18 10:28:00
6:34 AM,57.2,57.2,100,29.95,3.0,NE,5.8,-,N/A,,Mostly Cloudy,50,2013-06-18 10:34:00
6:38 AM,57.2,57.2,100,29.95,1.8,ENE,6.9,-,N/A,,Overcast,60,2013-06-18 10:38:00
6:53 AM,60.1,60.1,100,29.94,1.8,ENE,6.9,-,N/A,,Overcast,60,2013-06-18 10:53:00
7:00 AM,60.8,60.8,100,29.96,2.5,ENE,6.9,-,N/A,,Overcast,60,2013-06-18 11:00:00
7:08 AM,60.8,60.8,100,29.96,3.0,ENE,6.9,-,N/A,,Overcast,60,2013-06-18 11:08:00
7:29 AM,60.8,60.8,100,29.97,3.0,ENE,4.6,-,N/A,,Overcast,60,2013-06-18 11:29:00
7:53 AM,62.1,60.1,93,29.97,4.0,NE,5.8,-,N/A,,Overcast,40,2013-06-18 11:53:00
8:53 AM,61.0,59.0,93,29.99,9.0,NE,5.8,-,N/A,,Overcast,50,2013-06-18 12:53:00
9:38 AM,62.6,57.2,82,30.01,10.0,ENE,10.4,-,N/A,,Overcast,70,2013-06-18 13:38:00
9:53 AM,63.0,57.9,84,30.01,10.0,NE,5.8,-,N/A,,Overcast,50,2013-06-18 13:53:00
10:22 AM,66.2,57.2,73,30.01,10.0,East,8.1,-,N/A,,Scattered Clouds,90,2013-06-18 14:22:00
10:53 AM,68.0,57.0,68,30.00,10.0,East,12.7,17.3,N/A,,Clear,100,2013-06-18 14:53:00
11:53 AM,71.1,57.9,63,30.01,10.0,NE,9.2,-,N/A,,Clear,50,2013-06-18 15:53:00
12:53 PM,73.0,57.9,59,30.00,10.0,ENE,8.1,-,N/A,,Scattered Clouds,70,2013-06-18 16:53:00
1:53 PM,72.0,59.0,64,30.01,10.0,Variable,5.8,-,N/A,,Mostly Cloudy,0,2013-06-18 17:53:00
2:53 PM,69.1,59.0,70,30.01,10.0,Variable,5.8,-,N/A,,Mostly Cloudy,0,2013-06-18 18:53:00
3:53 PM,69.1,59.0,70,30.01,10.0,Variable,6.9,-,N/A,,Partly Cloudy,0,2013-06-18 19:53:00
4:53 PM,69.1,57.9,68,30.01,10.0,NNW,8.1,-,N/A,,Clear,340,2013-06-18 20:53:00
5:53 PM,66.9,57.0,70,30.01,10.0,North,5.8,-,N/A,,Clear,350,2013-06-18 21:53:00
6:53 PM,66.0,55.9,70,30.01,10.0,Variable,5.8,-,N/A,,Clear,0,2013-06-18 22:53:00
7:53 PM,64.9,54.0,68,30.02,10.0,North,6.9,-,N/A,,Clear,10,2013-06-18 23:53:00
8:53 PM,63.0,55.0,75,30.03,10.0,North,4.6,-,N/A,,Clear,10,2013-06-19 00:53:00
9:53 PM,60.1,55.0,83,30.04,10.0,NE,3.5,-,N/A,,Clear,40,2013-06-19 01:53:00
10:53 PM,59.0,51.1,75,30.06,10.0,ENE,5.8,-,N/A,,Clear,60,2013-06-19 02:53:00
11:53 PM,59.0,48.0,67,30.06,10.0,East,5.8,-,N/A,,Clear,80,2013-06-19 03:53:00